Time,TemperatureF,DewpointF,PressureIn,WindDirection,WindDirectionDegrees,WindSpeedMPH,WindSpeedGustMPH,Humidity,HourlyPrecipIn,Conditions,Clouds,dailyrainin,SoftwareType,DateUTC
2013-06-03 00:02:00,51.0,46.0,-100.00,SW,225,2.0,3.0,83,-99.99,,,-99.99,,2013-06-03 07:02:00,
2013-06-03 00:12:00,51.0,46.0,-100.00,SW,225,2.0,3.0,83,-99.99,,,-99.99,,2013-06-03 07:12:00,
2013-06-03 00:22:00,50.0,46.0,-100.00,SW,225,1.0,3.0,84,-99.99,,,-99.99,,2013-06-03 07:22:00,
2013-06-03 00:32:00,50.0,46.0,-100.00,SW,225,1.0,2.0,85,-99.99,,,-99.99,,2013-06-03 07:32:00,
2013-06-03 00:42:00,50.0,46.0,-100.00,SW,225,1.0,2.0,85,-99.99,,,-99.99,,2013-06-03 07:42:00,
2013-06-03 00:52:00,50.0,46.0,-100.00,West,270,2.0,3.0,85,-99.99,,,-99.99,,2013-06-03 07:52:00,
2013-06-03 01:02:00,50.0,46.0,-100.00,SW,225,1.0,1.0,85,-99.99,,,-99.99,,2013-06-03 08:02:00,
2013-06-03 01:12:00,50.0,46.0,-100.00,West,270,3.0,4.0,85,-99.99,,,-99.99,,2013-06-03 08:12:00,
2013-06-03 01:22:00,50.0,46.0,-100.00,West,270,3.0,4.0,85,-99.99,,,-99.99,,2013-06-03 08:22:00,
2013-06-03 01:32:00,50.0,46.0,-100.00,SW,225,1.0,1.0,85,-99.99,,,-99.99,,2013-06-03 08:32:00,
2013-06-03 01:42:00,50.0,46.0,-100.00,SW,225,1.0,1.0,85,-99.99,,,-99.99,,2013-06-03 08:42:00,
2013-06-03 01:52:00,50.0,46.0,-100.00,SW,225,2.0,3.0,85,-99.99,,,-99.99,,2013-06-03 08:52:00,
2013-06-03 02:02:00,50.0,46.0,-100.00,SW,225,1.0,3.0,85,-99.99,,,-99.99,,2013-06-03 09:02:00,
2013-06-03 02:12:00,50.0,46.0,-100.00,SW,225,1.0,3.0,85,-99.99,,,-99.99,,2013-06-03 09:12:00,
2013-06-03 02:22:00,50.0,46.0,-100.00,SW,225,3.0,5.0,85,-99.99,,,-99.99,,2013-06-03 09:22:00,
2013-06-03 02:33:00,50.0,46.0,-100.00,West,270,1.0,2.0,85,-99.99,,,-99.99,,2013-06-03 09:33:00,
2013-06-03 02:42:00,50.0,46.0,-100.00,West,270,1.0,2.0,85,-99.99,,,-99.99,,2013-06-03 09:42:00,
2013-06-03 02:53:00,50.0,46.0,-100.00,West,270,1.0,2.0,85,-99.99,,,-99.99,,2013-06-03 09:53:00,
2013-06-03 03:02:00,50.0,46.0,-100.00,SW,225,1.0,1.0,84,-99.99,,,-99.99,,2013-06-03 10:02:00,
2013-06-03 03:12:00,50.0,46.0,-100.00,SW,225,1.0,1.0,84,-99.99,,,-99.99,,2013-06-03 10:12:00,
2013-06-03 03:22:00,50.0,45.0,-100.00,SW,225,2.0,3.0,84,-99.99,,,-99.99,,2013-06-03 10:22:00,
2013-06-03 03:33:00,50.0,45.0,-100.00,SW,225,1.0,2.0,84,-99.99,,,-99.99,,2013-06-03 10:33:00,
2013-06-03 03:42:00,50.0,45.0,-100.00,West,270,0.0,1.0,84,-99.99,,,-99.99,,2013-06-03 10:42:00,
2013-06-03 03:52:00,50.0,45.0,-100.00,West,270,0.0,1.0,84,-99.99,,,-99.99,,2013-06-03 10:52:00,
2013-06-03 04:02:00,50.0,45.0,-100.00,SW,225,0.0,1.0,84,-99.99,,,-99.99,,2013-06-03 11:02:00,
2013-06-03 04:12:00,50.0,45.0,-100.00,SW,225,0.0,1.0,84,-99.99,,,-99.99,,2013-06-03 11:12:00,
2013-06-03 04:22:00,50.0,45.0,-100.00,SW,225,0.0,1.0,84,-99.99,,,-99.99,,2013-06-03 11:22:00,
2013-06-03 04:32:00,50.0,45.0,-100.00,NW,315,0.0,1.0,84,-99.99,,,-99.99,,2013-06-03 11:32:00,
2013-06-03 04:42:00,50.0,45.0,-100.00,NW,315,0.0,1.0,84,-99.99,,,-99.99,,2013-06-03 11:42:00,
2013-06-03 04:52:00,50.0,45.0,-100.00,West,270,2.0,3.0,84,-99.99,,,-99.99,,2013-06-03 11:52:00,
2013-06-03 05:02:00,50.0,45.0,-100.00,North,-999,0.0,0.0,83,-99.99,,,-99.99,,2013-06-03 12:02:00,
2013-06-03 05:12:00,50.0,45.0,-100.00,North,-999,0.0,0.0,83,-99.99,,,-99.99,,2013-06-03 12:12:00,
2013-06-03 05:22:00,49.0,44.0,-100.00,SW,225,0.0,1.0,83,-99.99,,,-99.99,,2013-06-03 12:22:00,
2013-06-03 05:32:00,49.0,44.0,-100.00,SW,225,0.0,1.0,83,-99.99,,,-99.99,,2013-06-03 12:32:00,
2013-06-03 05:42:00,49.0,44.0,-100.00,SW,225,0.0,1.0,83,-99.99,,,-99.99,,2013-06-03 12:42:00,
2013-06-03 05:52:00,49.0,44.0,-100.00,North,-999,0.0,0.0,83,-99.99,,,-99.99,,2013-06-03 12:52:00,
2013-06-03 06:02:00,49.0,45.0,-100.00,SW,225,1.0,2.0,84,-99.99,,,-99.99,,2013-06-03 13:02:00,
2013-06-03 06:12:00,49.0,45.0,-100.00,SW,225,1.0,2.0,84,-99.99,,,-99.99,,2013-06-03 13:12:00,
2013-06-03 06:22:00,49.0,44.0,-100.00,West,270,1.0,1.0,84,-99.99,,,-99.99,,2013-06-03 13:22:00,
2013-06-03 06:32:00,49.0,44.0,-100.00,SW,225,1.0,2.0,84,-99.99,,,-99.99,,2013-06-03 13:32:00,
2013-06-03 06:52:00,49.0,45.0,-100.00,West,270,1.0,1.0,84,-99.99,,,-99.99,,2013-06-03 13:52:00,
2013-06-03 07:02:00,50.0,45.0,-100.00,SW,225,0.0,1.0,83,-99.99,,,-99.99,,2013-06-03 14:02:00,
2013-06-03 07:12:00,50.0,45.0,-100.00,SW,225,0.0,1.0,83,-99.99,,,-99.99,,2013-06-03 14:12:00,
2013-06-03 07:22:00,50.0,45.0,-100.00,North,-999,0.0,0.0,83,-99.99,,,-99.99,,2013-06-03 14:22:00,
2013-06-03 07:32:00,50.0,44.0,-100.00,SW,225,1.0,1.0,82,-99.99,,,-99.99,,2013-06-03 14:32:00,
2013-06-03 07:42:00,50.0,44.0,-100.00,SW,225,1.0,1.0,82,-99.99,,,-99.99,,2013-06-03 14:42:00,
2013-06-03 07:52:00,50.0,44.0,-100.00,SW,225,1.0,1.0,82,-99.99,,,-99.99,,2013-06-03 14:52:00,
2013-06-03 08:02:00,50.0,44.0,-100.00,SW,225,1.0,1.0,82,-99.99,,,-99.99,,2013-06-03 15:02:00,
2013-06-03 08:12:00,50.0,45.0,-100.00,SW,225,1.0,2.0,81,-99.99,,,-99.99,,2013-06-03 15:12:00,
2013-06-03 08:22:00,50.0,45.0,-100.00,SW,225,1.0,2.0,81,-99.99,,,-99.99,,2013-06-03 15:22:00,
2013-06-03 08:33:00,51.0,45.0,-100.00,SW,225,1.0,1.0,79,-99.99,,,-99.99,,2013-06-03 15:33:00,
2013-06-03 08:43:00,51.0,45.0,-100.00,SW,225,1.0,1.0,79,-99.99,,,-99.99,,2013-06-03 15:43:00,
2013-06-03 08:53:00,51.0,45.0,-100.00,North,-999,0.0,0.0,78,-99.99,,,-99.99,,2013-06-03 15:53:00,
2013-06-03 09:03:00,52.0,45.0,-100.00,West,270,1.0,4.0,77,-99.99,,,-99.99,,2013-06-03 16:03:00,
2013-06-03 09:12:00,52.0,45.0,-100.00,West,270,1.0,4.0,77,-99.99,,,-99.99,,2013-06-03 16:12:00,
2013-06-03 09:23:00,52.0,44.0,-100.00,West,270,1.0,2.0,75,-99.99,,,-99.99,,2013-06-03 16:23:00,
2013-06-03 09:33:00,53.0,45.0,-100.00,West,270,0.0,1.0,74,-99.99,,,-99.99,,2013-06-03 16:33:00,
2013-06-03 09:42:00,53.0,45.0,-100.00,West,270,0.0,1.0,74,-99.99,,,-99.99,,2013-06-03 16:42:00,
2013-06-03 09:53:00,54.0,45.0,-100.00,SW,225,3.0,3.0,72,-99.99,,,-99.99,,2013-06-03 16:53:00,
2013-06-03 10:02:00,54.0,45.0,-100.00,West,270,3.0,4.0,72,-99.99,,,-99.99,,2013-06-03 17:02:00,
2013-06-03 10:12:00,54.0,45.0,-100.00,West,270,3.0,4.0,72,-99.99,,,-99.99,,2013-06-03 17:12:00,
2013-06-03 10:22:00,55.0,45.0,-100.00,NW,315,1.0,2.0,70,-99.99,,,-99.99,,2013-06-03 17:22:00,
2013-06-03 10:33:00,56.0,45.0,-100.00,West,270,2.0,3.0,67,-99.99,,,-99.99,,2013-06-03 17:33:00,
2013-06-03 10:42:00,56.0,45.0,-100.00,West,270,2.0,3.0,67,-99.99,,,-99.99,,2013-06-03 17:42:00,
2013-06-03 10:52:00,56.0,45.0,-100.00,West,270,2.0,3.0,67,-99.99,,,-99.99,,2013-06-03 17:52:00,
2013-06-03 11:02:00,58.0,45.0,-100.00,NE,45,0.0,1.0,63,-99.99,,,-99.99,,2013-06-03 18:02:00,
2013-06-03 11:12:00,58.0,45.0,-100.00,NE,45,0.0,1.0,63,-99.99,,,-99.99,,2013-06-03 18:12:00,
2013-06-03 11:22:00,59.0,46.0,-100.00,North,0,1.0,2.0,62,-99.99,,,-99.99,,2013-06-03 18:22:00,
2013-06-03 11:32:00,60.0,45.0,-100.00,South,180,0.0,1.0,58,-99.99,,,-99.99,,2013-06-03 18:32:00,
2013-06-03 11:42:00,60.0,45.0,-100.00,South,180,0.0,1.0,58,-99.99,,,-99.99,,2013-06-03 18:42:00,
2013-06-03 11:52:00,61.0,45.0,-100.00,South,180,1.0,3.0,55,-99.99,,,-99.99,,2013-06-03 18:52:00,
2013-06-03 12:03:00,63.0,44.0,-100.00,West,270,1.0,1.0,50,-99.99,,,-99.99,,2013-06-03 19:03:00,
2013-06-03 12:12:00,63.0,44.0,-100.00,West,270,1.0,1.0,50,-99.99,,,-99.99,,2013-06-03 19:12:00,
2013-06-03 12:22:00,63.0,44.0,-100.00,SW,225,1.0,2.0,50,-99.99,,,-99.99,,2013-06-03 19:22:00,
2013-06-03 12:32:00,65.0,43.0,-100.00,SW,225,1.0,6.0,46,-99.99,,,-99.99,,2013-06-03 19:32:00,
2013-06-03 12:42:00,65.0,43.0,-100.00,SW,225,1.0,6.0,46,-99.99,,,-99.99,,2013-06-03 19:42:00,
2013-06-03 12:52:00,66.0,44.0,-100.00,SE,135,1.0,2.0,44,-99.99,,,-99.99,,2013-06-03 19:52:00,
2013-06-03 13:02:00,67.0,43.0,-100.00,South,180,0.0,1.0,42,-99.99,,,-99.99,,2013-06-03 20:02:00,
2013-06-03 13:12:00,67.0,43.0,-100.00,South,180,0.0,1.0,42,-99.99,,,-99.99,,2013-06-03 20:12:00,
2013-06-03 13:22:00,68.0,44.0,-100.00,SW,225,3.0,5.0,42,-99.99,,,-99.99,,2013-06-03 20:22:00,
2013-06-03 13:32:00,70.0,45.0,-100.00,NW,315,2.0,3.0,41,-99.99,,,-99.99,,2013-06-03 20:32:00,
2013-06-03 13:42:00,70.0,45.0,-100.00,NW,315,2.0,3.0,41,-99.99,,,-99.99,,2013-06-03 20:42:00,
2013-06-03 13:52:00,71.0,45.0,-100.00,SW,225,3.0,3.0,39,-99.99,,,-99.99,,2013-06-03 20:52:00,
2013-06-03 14:02:00,70.0,44.0,-100.00,SW,225,1.0,1.0,40,-99.99,,,-99.99,,2013-06-03 21:02:00,
2013-06-03 14:12:00,70.0,44.0,-100.00,SW,225,1.0,1.0,40,-99.99,,,-99.99,,2013-06-03 21:12:00,
2013-06-03 14:22:00,69.0,44.0,-100.00,West,270,4.0,7.0,40,-99.99,,,-99.99,,2013-06-03 21:22:00,
2013-06-03 14:33:00,69.0,44.0,-100.00,SW,225,2.0,4.0,41,-99.99,,,-99.99,,2013-06-03 21:33:00,
2013-06-03 14:43:00,69.0,44.0,-100.00,SW,225,2.0,4.0,41,-99.99,,,-99.99,,2013-06-03 21:43:00,
2013-06-03 14:53:00,69.0,45.0,-100.00,West,270,2.0,3.0,42,-99.99,,,-99.99,,2013-06-03 21:53:00,
2013-06-03 15:02:00,70.0,45.0,-100.00,SW,225,5.0,8.0,42,-99.99,,,-99.99,,2013-06-03 22:02:00,
2013-06-03 15:12:00,70.0,45.0,-100.00,SW,225,5.0,8.0,42,-99.99,,,-99.99,,2013-06-03 22:12:00,
2013-06-03 15:22:00,68.0,46.0,-100.00,West,270,3.0,6.0,44,-99.99,,,-99.99,,2013-06-03 22:22:00,
2013-06-03 15:32:00,68.0,46.0,-100.00,West,270,6.0,8.0,45,-99.99,,,-99.99,,2013-06-03 22:32:00,
2013-06-03 15:42:00,68.0,46.0,-100.00,West,270,6.0,8.0,45,-99.99,,,-99.99,,2013-06-03 22:42:00,
2013-06-03 15:53:00,69.0,47.0,-100.00,West,270,3.0,5.0,45,-99.99,,,-99.99,,2013-06-03 22:53:00,
2013-06-03 16:02:00,69.0,47.0,-100.00,West,270,3.0,5.0,45,-99.99,,,-99.99,,2013-06-03 23:02:00,
2013-06-03 16:12:00,69.0,47.0,-100.00,West,270,3.0,5.0,45,-99.99,,,-99.99,,2013-06-03 23:12:00,
2013-06-03 16:22:00,68.0,47.0,-100.00,SW,225,3.0,5.0,47,-99.99,,,-99.99,,2013-06-03 23:22:00,
2013-06-03 16:32:00,68.0,47.0,-100.00,West,270,2.0,3.0,47,-99.99,,,-99.99,,2013-06-03 23:32:00,
2013-06-03 16:42:00,68.0,47.0,-100.00,West,270,2.0,3.0,47,-99.99,,,-99.99,,2013-06-03 23:42:00,
2013-06-03 16:52:00,67.0,46.0,-100.00,West,270,3.0,6.0,48,-99.99,,,-99.99,,2013-06-03 23:52:00,
2013-06-03 17:02:00,66.0,46.0,-100.00,SW,225,4.0,8.0,48,-99.99,,,-99.99,,2013-06-04 00:02:00,
2013-06-03 17:12:00,66.0,46.0,-100.00,SW,225,4.0,8.0,48,-99.99,,,-99.99,,2013-06-04 00:12:00,
2013-06-03 17:22:00,66.0,47.0,-100.00,West,270,3.0,4.0,49,-99.99,,,-99.99,,2013-06-04 00:22:00,
2013-06-03 17:32:00,67.0,47.0,-100.00,West,270,1.0,2.0,49,-99.99,,,-99.99,,2013-06-04 00:32:00,
2013-06-03 17:42:00,67.0,47.0,-100.00,West,270,1.0,2.0,49,-99.99,,,-99.99,,2013-06-04 00:42:00,
2013-06-03 17:52:00,66.0,46.0,-100.00,SW,225,4.0,7.0,49,-99.99,,,-99.99,,2013-06-04 00:52:00,
2013-06-03 18:02:00,65.0,46.0,-100.00,West,270,2.0,3.0,50,-99.99,,,-99.99,,2013-06-04 01:02:00,
2013-06-03 18:12:00,66.0,46.0,-100.00,West,270,4.0,7.0,49,-99.99,,,-99.99,,2013-06-04 01:12:00,
2013-06-03 18:22:00,66.0,46.0,-100.00,West,270,4.0,7.0,49,-99.99,,,-99.99,,2013-06-04 01:22:00,
2013-06-03 18:32:00,65.0,46.0,-100.00,West,270,3.0,4.0,50,-99.99,,,-99.99,,2013-06-04 01:32:00,
2013-06-03 18:42:00,65.0,46.0,-100.00,West,270,4.0,7.0,50,-99.99,,,-99.99,,2013-06-04 01:42:00,
2013-06-03 18:52:00,65.0,46.0,-100.00,West,270,4.0,7.0,50,-99.99,,,-99.99,,2013-06-04 01:52:00,
2013-06-03 19:02:00,64.0,46.0,-100.00,SW,225,3.0,4.0,51,-99.99,,,-99.99,,2013-06-04 02:02:00,
2013-06-03 19:12:00,64.0,46.0,-100.00,SW,225,3.0,4.0,51,-99.99,,,-99.99,,2013-06-04 02:12:00,
2013-06-03 19:22:00,63.0,45.0,-100.00,SW,225,3.0,4.0,52,-99.99,,,-99.99,,2013-06-04 02:22:00,
2013-06-03 19:32:00,62.0,45.0,-100.00,SW,225,3.0,4.0,54,-99.99,,,-99.99,,2013-06-04 02:32:00,
2013-06-03 19:42:00,62.0,45.0,-100.00,SW,225,3.0,4.0,54,-99.99,,,-99.99,,2013-06-04 02:42:00,
2013-06-03 19:52:00,61.0,45.0,-100.00,West,270,3.0,5.0,57,-99.99,,,-99.99,,2013-06-04 02:52:00,
2013-06-03 20:02:00,59.0,45.0,-100.00,West,270,3.0,5.0,59,-99.99,,,-99.99,,2013-06-04 03:02:00,
2013-06-03 20:12:00,59.0,45.0,-100.00,West,270,3.0,5.0,59,-99.99,,,-99.99,,2013-06-04 03:12:00,
2013-06-03 20:22:00,58.0,45.0,-100.00,West,270,3.0,5.0,61,-99.99,,,-99.99,,2013-06-04 03:22:00,
2013-06-03 20:32:00,58.0,45.0,-100.00,West,270,3.0,5.0,63,-99.99,,,-99.99,,2013-06-04 03:32:00,
2013-06-03 20:43:00,58.0,45.0,-100.00,West,270,3.0,5.0,63,-99.99,,,-99.99,,2013-06-04 03:43:00,
2013-06-03 20:53:00,56.0,45.0,-100.00,SW,225,3.0,3.0,67,-99.99,,,-99.99,,2013-06-04 03:53:00,
2013-06-03 21:02:00,56.0,45.0,-100.00,SW,225,3.0,3.0,67,-99.99,,,-99.99,,2013-06-04 04:02:00,
2013-06-03 21:13:00,56.0,45.0,-100.00,SW,225,3.0,3.0,67,-99.99,,,-99.99,,2013-06-04 04:13:00,
2013-06-03 21:23:00,55.0,45.0,-100.00,SW,225,3.0,4.0,70,-99.99,,,-99.99,,2013-06-04 04:23:00,
2013-06-03 21:33:00,54.0,45.0,-100.00,SW,225,2.0,3.0,72,-99.99,,,-99.99,,2013-06-04 04:33:00,
2013-06-03 21:42:00,54.0,45.0,-100.00,SW,225,2.0,3.0,72,-99.99,,,-99.99,,2013-06-04 04:42:00,
2013-06-03 21:53:00,54.0,46.0,-100.00,SW,225,1.0,3.0,74,-99.99,,,-99.99,,2013-06-04 04:53:00,
2013-06-03 22:02:00,53.0,46.0,-100.00,SW,225,4.0,6.0,77,-99.99,,,-99.99,,2013-06-04 05:02:00,
2013-06-03 22:12:00,53.0,46.0,-100.00,SW,225,4.0,6.0,77,-99.99,,,-99.99,,2013-06-04 05:12:00,
2013-06-03 22:22:00,52.0,46.0,-100.00,SW,225,3.0,3.0,79,-99.99,,,-99.99,,2013-06-04 05:22:00,
2013-06-03 22:32:00,52.0,46.0,-100.00,SW,225,2.0,3.0,81,-99.99,,,-99.99,,2013-06-04 05:32:00,
2013-06-03 22:42:00,52.0,46.0,-100.00,SW,225,2.0,3.0,81,-99.99,,,-99.99,,2013-06-04 05:42:00,
2013-06-03 22:52:00,51.0,46.0,-100.00,SW,225,3.0,4.0,83,-99.99,,,-99.99,,2013-06-04 05:52:00,
2013-06-03 23:02:00,51.0,46.0,-100.00,SW,225,2.0,3.0,84,-99.99,,,-99.99,,2013-06-04 06:02:00,
2013-06-03 23:12:00,51.0,46.0,-100.00,SW,225,2.0,3.0,84,-99.99,,,-99.99,,2013-06-04 06:12:00,
2013-06-03 23:22:00,50.0,46.0,-100.00,SW,225,3.0,3.0,85,-99.99,,,-99.99,,2013-06-04 06:22:00,
2013-06-03 23:32:00,50.0,46.0,-100.00,West,270,3.0,4.0,85,-99.99,,,-99.99,,2013-06-04 06:32:00,
2013-06-03 23:42:00,50.0,46.0,-100.00,West,270,3.0,4.0,85,-99.99,,,-99.99,,2013-06-04 06:42:00,
2013-06-03 23:52:00,50.0,46.0,-100.00,West,270,2.0,3.0,86,-99.99,,,-99.99,,2013-06-04 06:52:00,